sensor_id;sensor_type;location;lat;lon;timestamp;temperature;humidity
67379;DHT22;54262;44.642;-0.974;2024-01-15T00:00:39;8.50;99.90
67379;DHT22;54262;44.642;-0.974;2024-01-15T00:03:05;8.60;99.90
67379;DHT22;54262;44.642;-0.974;2024-01-15T00:05:31;8.60;99.90
67379;DHT22;54262;44.642;-0.974;2024-01-15T00:07:56;8.60;99.90
67379;DHT22;54262;44.642;-0.974;2024-01-15T00:10:22;8.60;99.90
67379;DHT22;54262;44.642;-0.974;2024-01-15T00:12:48;8.70;99.90
67379;DHT22;54262;44.642;-0.974;2024-01-15T00:15:13;8.70;99.90
67379;DHT22;54262;44.642;-0.974;2024-01-15T00:17:39;8.70;99.90
67379;DHT22;54262;44.642;-0.974;2024-01-15T00:20:05;8.70;99.90
67379;DHT22;54262;44.642;-0.974;2024-01-15T00:22:30;8.80;99.90
67379;DHT22;54262;44.642;-0.974;2024-01-15T00:24:57;8.80;99.90
67379;DHT22;54262;44.642;-0.974;2024-01-15T00:27:22;8.80;99.90
67379;DHT22;54262;44.642;-0.974;2024-01-15T00:29:49;8.90;99.90
67379;DHT22;54262;44.642;-0.974;2024-01-15T00:32:15;8.90;99.90
67379;DHT22;54262;44.642;-0.974;2024-01-15T00:34:41;8.90;99.90
67379;DHT22;54262;44.642;-0.974;2024-01-15T00:37:09;8.90;99.90
67379;DHT22;54262;44.642;-0.974;2024-01-15T00:39:34;8.90;99.90
67379;DHT22;54262;44.642;-0.974;2024-01-15T00:42:00;8.90;99.90
67379;DHT22;54262;44.642;-0.974;2024-01-15T00:44:26;9.00;99.90
67379;DHT22;54262;44.642;-0.974;2024-01-15T00:46:54;9.00;99.90
67379;DHT22;54262;44.642;-0.974;2024-01-15T00:49:19;9.00;99.90
67379;DHT22;54262;44.642;-0.974;2024-01-15T00:51:45;9.10;99.90
67379;DHT22;54262;44.642;-0.974;2024-01-15T00:54:10;9.10;99.90
67379;DHT22;54262;44.642;-0.974;2024-01-15T00:56:36;9.10;99.90
67379;DHT22;54262;44.642;-0.974;2024-01-15T00:59:02;9.10;99.90
67379;DHT22;54262;44.642;-0.974;2024-01-15T01:01:31;9.10;99.90
67379;DHT22;54262;44.642;-0.974;2024-01-15T01:03:56;9.10;99.90
67379;DHT22;54262;44.642;-0.974;2024-01-15T01:06:22;9.10;99.90
67379;DHT22;54262;44.642;-0.974;2024-01-15T01:08:47;9.10;99.90
67379;DHT22;54262;44.642;-0.974;2024-01-15T01:11:13;9.10;99.90
67379;DHT22;54262;44.642;-0.974;2024-01-15T01:13:39;9.10;99.90
67379;DHT22;54262;44.642;-0.974;2024-01-15T01:16:05;9.10;99.90
67379;DHT22;54262;44.642;-0.974;2024-01-15T01:18:30;9.10;99.90
67379;DHT22;54262;44.642;-0.974;2024-01-15T01:20:56;9.10;99.90
67379;DHT22;54262;44.642;-0.974;2024-01-15T01:23:21;9.20;99.90
67379;DHT22;54262;44.642;-0.974;2024-01-15T01:25:47;9.10;99.90
67379;DHT22;54262;44.642;-0.974;2024-01-15T01:28:12;9.20;99.90
67379;DHT22;54262;44.642;-0.974;2024-01-15T01:30:38;9.20;99.90
67379;DHT22;54262;44.642;-0.974;2024-01-15T01:33:03;9.30;99.90
67379;DHT22;54262;44.642;-0.974;2024-01-15T01:35:30;9.30;99.90
67379;DHT22;54262;44.642;-0.974;2024-01-15T01:37:58;9.30;99.90
67379;DHT22;54262;44.642;-0.974;2024-01-15T01:40:23;9.30;99.90
67379;DHT22;54262;44.642;-0.974;2024-01-15T01:42:49;9.30;99.90
67379;DHT22;54262;44.642;-0.974;2024-01-15T01:45:14;9.30;99.90
67379;DHT22;54262;44.642;-0.974;2024-01-15T01:47:42;9.30;99.90
67379;DHT22;54262;44.642;-0.974;2024-01-15T01:50:08;9.30;99.90
67379;DHT22;54262;44.642;-0.974;2024-01-15T01:52:34;9.40;99.90
67379;DHT22;54262;44.642;-0.974;2024-01-15T01:55:00;9.30;99.90
67379;DHT22;54262;44.642;-0.974;2024-01-15T01:57:27;9.30;99.90
67379;DHT22;54262;44.642;-0.974;2024-01-15T01:59:53;9.40;99.90
67379;DHT22;54262;44.642;-0.974;2024-01-15T02:02:19;9.40;99.90
67379;DHT22;54262;44.642;-0.974;2024-01-15T02:04:45;9.30;99.90
67379;DHT22;54262;44.642;-0.974;2024-01-15T02:07:12;9.30;99.90
67379;DHT22;54262;44.642;-0.974;2024-01-15T02:09:38;9.20;99.90
67379;DHT22;54262;44.642;-0.974;2024-01-15T02:12:03;9.20;99.90
67379;DHT22;54262;44.642;-0.974;2024-01-15T02:14:29;9.30;99.90
67379;DHT22;54262;44.642;-0.974;2024-01-15T02:16:54;9.30;99.90
67379;DHT22;54262;44.642;-0.974;2024-01-15T02:19:20;9.20;99.90
67379;DHT22;54262;44.642;-0.974;2024-01-15T02:21:45;9.30;99.90
67379;DHT22;54262;44.642;-0.974;2024-01-15T02:24:11;9.30;99.90
67379;DHT22;54262;44.642;-0.974;2024-01-15T02:26:37;9.40;99.90
67379;DHT22;54262;44.642;-0.974;2024-01-15T02:29:04;9.30;99.90
67379;DHT22;54262;44.642;-0.974;2024-01-15T02:31:30;9.40;99.90
67379;DHT22;54262;44.642;-0.974;2024-01-15T02:33:55;9.40;99.90
67379;DHT22;54262;44.642;-0.974;2024-01-15T02:36:21;9.70;99.90
67379;DHT22;54262;44.642;-0.974;2024-01-15T02:38:48;9.50;99.90
67379;DHT22;54262;44.642;-0.974;2024-01-15T02:41:14;9.40;99.90
67379;DHT22;54262;44.642;-0.974;2024-01-15T02:43:40;9.40;99.90
67379;DHT22;54262;44.642;-0.974;2024-01-15T02:46:06;9.30;99.90
67379;DHT22;54262;44.642;-0.974;2024-01-15T02:48:34;9.40;99.90
67379;DHT22;54262;44.642;-0.974;2024-01-15T02:51:02;9.50;99.90
67379;DHT22;54262;44.642;-0.974;2024-01-15T02:53:27;9.50;99.90
67379;DHT22;54262;44.642;-0.974;2024-01-15T02:55:53;9.50;99.90
67379;DHT22;54262;44.642;-0.974;2024-01-15T02:58:19;9.50;99.90
67379;DHT22;54262;44.642;-0.974;2024-01-15T03:00:44;9.50;99.90
67379;DHT22;54262;44.642;-0.974;2024-01-15T03:03:10;9.50;99.90
67379;DHT22;54262;44.642;-0.974;2024-01-15T03:05:35;9.50;99.90
67379;DHT22;54262;44.642;-0.974;2024-01-15T03:08:01;9.50;99.90
67379;DHT22;54262;44.642;-0.974;2024-01-15T03:10:26;9.50;99.90
67379;DHT22;54262;44.642;-0.974;2024-01-15T03:12:52;9.50;99.90
67379;DHT22;54262;44.642;-0.974;2024-01-15T03:15:17;9.60;99.90
67379;DHT22;54262;44.642;-0.974;2024-01-15T03:17:44;9.60;99.90
67379;DHT22;54262;44.642;-0.974;2024-01-15T03:20:09;9.60;99.90
67379;DHT22;54262;44.642;-0.974;2024-01-15T03:22:35;9.60;99.90
67379;DHT22;54262;44.642;-0.974;2024-01-15T03:25:01;9.60;99.90
67379;DHT22;54262;44.642;-0.974;2024-01-15T03:27:29;9.50;99.90
67379;DHT22;54262;44.642;-0.974;2024-01-15T03:29:55;9.50;99.90
67379;DHT22;54262;44.642;-0.974;2024-01-15T03:32:20;9.50;99.90
67379;DHT22;54262;44.642;-0.974;2024-01-15T03:34:46;9.50;99.90
67379;DHT22;54262;44.642;-0.974;2024-01-15T03:37:13;9.40;99.90
67379;DHT22;54262;44.642;-0.974;2024-01-15T03:39:41;9.70;99.90
67379;DHT22;54262;44.642;-0.974;2024-01-15T03:42:06;9.50;99.90
67379;DHT22;54262;44.642;-0.974;2024-01-15T03:44:32;9.50;99.90
67379;DHT22;54262;44.642;-0.974;2024-01-15T03:46:57;9.40;99.90
67379;DHT22;54262;44.642;-0.974;2024-01-15T03:49:25;9.50;99.90
67379;DHT22;54262;44.642;-0.974;2024-01-15T03:51:50;9.50;99.90
67379;DHT22;54262;44.642;-0.974;2024-01-15T03:54:16;9.40;99.90
67379;DHT22;54262;44.642;-0.974;2024-01-15T03:56:41;9.40;99.90
67379;DHT22;54262;44.642;-0.974;2024-01-15T03:59:07;9.40;99.90
67379;DHT22;54262;44.642;-0.974;2024-01-15T04:01:32;9.30;99.90
67379;DHT22;54262;44.642;-0.974;2024-01-15T04:04:04;9.40;99.90
67379;DHT22;54262;44.642;-0.974;2024-01-15T04:06:29;9.40;99.90
67379;DHT22;54262;44.642;-0.974;2024-01-15T04:08:55;9.30;99.90
67379;DHT22;54262;44.642;-0.974;2024-01-15T04:11:21;9.30;99.90
67379;DHT22;54262;44.642;-0.974;2024-01-15T04:13:47;9.30;99.90
67379;DHT22;54262;44.642;-0.974;2024-01-15T04:16:13;9.30;99.90
67379;DHT22;54262;44.642;-0.974;2024-01-15T04:18:38;9.30;99.90
67379;DHT22;54262;44.642;-0.974;2024-01-15T04:21:05;9.30;99.90
67379;DHT22;54262;44.642;-0.974;2024-01-15T04:23:32;9.40;99.90
67379;DHT22;54262;44.642;-0.974;2024-01-15T04:25:57;9.40;99.90
67379;DHT22;54262;44.642;-0.974;2024-01-15T04:28:23;9.40;99.90
67379;DHT22;54262;44.642;-0.974;2024-01-15T04:30:48;9.40;99.90
67379;DHT22;54262;44.642;-0.974;2024-01-15T04:33:15;9.50;99.90
67379;DHT22;54262;44.642;-0.974;2024-01-15T04:35:41;9.50;99.90
67379;DHT22;54262;44.642;-0.974;2024-01-15T04:38:07;9.60;99.90
67379;DHT22;54262;44.642;-0.974;2024-01-15T04:40:35;9.60;99.90
67379;DHT22;54262;44.642;-0.974;2024-01-15T04:43:00;9.60;99.90
67379;DHT22;54262;44.642;-0.974;2024-01-15T04:45:26;9.60;99.90
67379;DHT22;54262;44.642;-0.974;2024-01-15T04:47:54;9.60;99.90
67379;DHT22;54262;44.642;-0.974;2024-01-15T04:50:22;9.60;99.90
67379;DHT22;54262;44.642;-0.974;2024-01-15T04:52:47;9.70;99.90
67379;DHT22;54262;44.642;-0.974;2024-01-15T04:55:13;9.70;99.90
67379;DHT22;54262;44.642;-0.974;2024-01-15T04:57:38;9.60;99.90
67379;DHT22;54262;44.642;-0.974;2024-01-15T05:00:04;9.70;99.90
67379;DHT22;54262;44.642;-0.974;2024-01-15T05:02:30;9.70;99.90
67379;DHT22;54262;44.642;-0.974;2024-01-15T05:04:55;9.70;99.90
67379;DHT22;54262;44.642;-0.974;2024-01-15T05:07:24;9.70;99.90
67379;DHT22;54262;44.642;-0.974;2024-01-15T05:09:49;9.70;99.90
67379;DHT22;54262;44.642;-0.974;2024-01-15T05:12:15;9.70;99.90
67379;DHT22;54262;44.642;-0.974;2024-01-15T05:14:40;9.70;99.90
67379;DHT22;54262;44.642;-0.974;2024-01-15T05:17:06;9.70;99.90
67379;DHT22;54262;44.642;-0.974;2024-01-15T05:19:31;9.70;99.90
67379;DHT22;54262;44.642;-0.974;2024-01-15T05:21:57;9.80;99.90
67379;DHT22;54262;44.642;-0.974;2024-01-15T05:24:22;9.70;99.90
67379;DHT22;54262;44.642;-0.974;2024-01-15T05:26:48;9.70;99.90
67379;DHT22;54262;44.642;-0.974;2024-01-15T05:29:13;9.80;99.90
67379;DHT22;54262;44.642;-0.974;2024-01-15T05:31:39;9.80;99.90
67379;DHT22;54262;44.642;-0.974;2024-01-15T05:34:04;9.80;99.90
67379;DHT22;54262;44.642;-0.974;2024-01-15T05:36:30;9.80;99.90
67379;DHT22;54262;44.642;-0.974;2024-01-15T05:38:55;9.80;99.90
67379;DHT22;54262;44.642;-0.974;2024-01-15T05:41:23;9.80;99.90
67379;DHT22;54262;44.642;-0.974;2024-01-15T05:43:49;9.90;99.90
67379;DHT22;54262;44.642;-0.974;2024-01-15T05:46:15;9.80;99.90
67379;DHT22;54262;44.642;-0.974;2024-01-15T05:48:41;9.90;99.90
67379;DHT22;54262;44.642;-0.974;2024-01-15T05:51:09;9.80;99.90
67379;DHT22;54262;44.642;-0.974;2024-01-15T05:53:35;9.90;99.90
67379;DHT22;54262;44.642;-0.974;2024-01-15T05:56:01;9.90;99.90
67379;DHT22;54262;44.642;-0.974;2024-01-15T05:58:26;9.90;99.90
67379;DHT22;54262;44.642;-0.974;2024-01-15T06:00:52;10.00;99.90
67379;DHT22;54262;44.642;-0.974;2024-01-15T06:03:17;10.00;99.90
67379;DHT22;54262;44.642;-0.974;2024-01-15T06:05:43;10.00;99.90
67379;DHT22;54262;44.642;-0.974;2024-01-15T06:08:09;10.00;99.90
67379;DHT22;54262;44.642;-0.974;2024-01-15T06:10:34;10.00;99.90
67379;DHT22;54262;44.642;-0.974;2024-01-15T06:13:00;10.00;99.90
67379;DHT22;54262;44.642;-0.974;2024-01-15T06:15:25;10.00;99.90
67379;DHT22;54262;44.642;-0.974;2024-01-15T06:17:51;10.00;99.90
67379;DHT22;54262;44.642;-0.974;2024-01-15T06:20:16;10.00;99.90
67379;DHT22;54262;44.642;-0.974;2024-01-15T06:22:42;10.00;99.90
67379;DHT22;54262;44.642;-0.974;2024-01-15T06:25:08;10.10;99.90
67379;DHT22;54262;44.642;-0.974;2024-01-15T06:27:36;10.10;99.90
67379;DHT22;54262;44.642;-0.974;2024-01-15T06:30:02;10.10;99.90
67379;DHT22;54262;44.642;-0.974;2024-01-15T06:32:28;10.10;99.90
67379;DHT22;54262;44.642;-0.974;2024-01-15T06:34:53;10.20;99.90
67379;DHT22;54262;44.642;-0.974;2024-01-15T06:37:19;10.20;99.90
67379;DHT22;54262;44.642;-0.974;2024-01-15T06:39:45;10.20;99.90
67379;DHT22;54262;44.642;-0.974;2024-01-15T06:42:13;10.20;99.90
67379;DHT22;54262;44.642;-0.974;2024-01-15T06:44:38;10.20;99.90
67379;DHT22;54262;44.642;-0.974;2024-01-15T06:47:05;10.20;99.90
67379;DHT22;54262;44.642;-0.974;2024-01-15T06:49:30;10.20;99.90
67379;DHT22;54262;44.642;-0.974;2024-01-15T06:51:58;10.30;99.90
67379;DHT22;54262;44.642;-0.974;2024-01-15T06:54:24;10.30;99.90
67379;DHT22;54262;44.642;-0.974;2024-01-15T06:56:51;10.30;99.90
67379;DHT22;54262;44.642;-0.974;2024-01-15T06:59:17;10.30;99.90
67379;DHT22;54262;44.642;-0.974;2024-01-15T07:01:42;10.30;99.90
67379;DHT22;54262;44.642;-0.974;2024-01-15T07:04:08;10.30;99.90
67379;DHT22;54262;44.642;-0.974;2024-01-15T07:06:33;10.40;99.90
67379;DHT22;54262;44.642;-0.974;2024-01-15T07:08:59;10.40;99.90
67379;DHT22;54262;44.642;-0.974;2024-01-15T07:11:25;10.40;99.90
67379;DHT22;54262;44.642;-0.974;2024-01-15T07:13:50;10.40;99.90
67379;DHT22;54262;44.642;-0.974;2024-01-15T07:16:16;10.50;99.90
67379;DHT22;54262;44.642;-0.974;2024-01-15T07:18:41;10.50;99.90
67379;DHT22;54262;44.642;-0.974;2024-01-15T07:21:07;10.50;99.90
67379;DHT22;54262;44.642;-0.974;2024-01-15T07:23:32;10.50;99.90
67379;DHT22;54262;44.642;-0.974;2024-01-15T07:25:58;10.50;99.90
67379;DHT22;54262;44.642;-0.974;2024-01-15T07:28:23;10.50;99.90
67379;DHT22;54262;44.642;-0.974;2024-01-15T07:30:52;10.60;99.90
67379;DHT22;54262;44.642;-0.974;2024-01-15T07:33:17;10.60;99.90
67379;DHT22;54262;44.642;-0.974;2024-01-15T07:35:43;10.60;99.90
67379;DHT22;54262;44.642;-0.974;2024-01-15T07:38:08;10.60;99.90
67379;DHT22;54262;44.642;-0.974;2024-01-15T07:40:35;10.60;99.90
67379;DHT22;54262;44.642;-0.974;2024-01-15T07:43:04;10.70;99.90
67379;DHT22;54262;44.642;-0.974;2024-01-15T07:45:30;10.70;99.90
67379;DHT22;54262;44.642;-0.974;2024-01-15T07:47:55;10.70;99.90
67379;DHT22;54262;44.642;-0.974;2024-01-15T07:50:21;10.70;99.90
67379;DHT22;54262;44.642;-0.974;2024-01-15T07:52:49;10.70;99.90
67379;DHT22;54262;44.642;-0.974;2024-01-15T07:55:14;10.70;99.90
67379;DHT22;54262;44.642;-0.974;2024-01-15T07:57:40;10.70;99.90
67379;DHT22;54262;44.642;-0.974;2024-01-15T08:00:07;10.80;99.90
67379;DHT22;54262;44.642;-0.974;2024-01-15T08:02:34;10.80;99.90
67379;DHT22;54262;44.642;-0.974;2024-01-15T08:04:59;10.80;99.90
67379;DHT22;54262;44.642;-0.974;2024-01-15T08:07:25;10.80;99.90
67379;DHT22;54262;44.642;-0.974;2024-01-15T08:09:51;10.80;99.90
67379;DHT22;54262;44.642;-0.974;2024-01-15T08:12:17;10.90;99.90
67379;DHT22;54262;44.642;-0.974;2024-01-15T08:14:43;10.90;99.90
67379;DHT22;54262;44.642;-0.974;2024-01-15T08:17:08;10.90;99.90
67379;DHT22;54262;44.642;-0.974;2024-01-15T08:19:34;11.20;99.90
67379;DHT22;54262;44.642;-0.974;2024-01-15T08:21:59;9.90;99.90
67379;DHT22;54262;44.642;-0.974;2024-01-15T08:24:25;9.40;99.90
67379;DHT22;54262;44.642;-0.974;2024-01-15T08:26:51;9.20;99.90
67379;DHT22;54262;44.642;-0.974;2024-01-15T08:29:16;9.20;99.90
67379;DHT22;54262;44.642;-0.974;2024-01-15T08:31:44;9.20;99.90
67379;DHT22;54262;44.642;-0.974;2024-01-15T08:34:09;9.20;99.90
67379;DHT22;54262;44.642;-0.974;2024-01-15T08:36:35;9.30;99.90
67379;DHT22;54262;44.642;-0.974;2024-01-15T08:39:01;9.30;99.90
67379;DHT22;54262;44.642;-0.974;2024-01-15T08:41:27;9.40;99.90
67379;DHT22;54262;44.642;-0.974;2024-01-15T08:43:54;9.40;99.90
67379;DHT22;54262;44.642;-0.974;2024-01-15T08:46:20;9.40;99.90
67379;DHT22;54262;44.642;-0.974;2024-01-15T08:48:45;9.50;99.90
67379;DHT22;54262;44.642;-0.974;2024-01-15T08:51:11;9.60;99.90
67379;DHT22;54262;44.642;-0.974;2024-01-15T08:53:39;9.60;99.90
67379;DHT22;54262;44.642;-0.974;2024-01-15T08:56:04;9.70;99.90
67379;DHT22;54262;44.642;-0.974;2024-01-15T08:58:31;9.70;99.90
67379;DHT22;54262;44.642;-0.974;2024-01-15T09:00:56;9.80;99.90
67379;DHT22;54262;44.642;-0.974;2024-01-15T09:03:25;10.00;99.90
67379;DHT22;54262;44.642;-0.974;2024-01-15T09:05:50;10.20;99.90
67379;DHT22;54262;44.642;-0.974;2024-01-15T09:08:16;10.30;99.90
67379;DHT22;54262;44.642;-0.974;2024-01-15T09:10:41;10.20;99.90
67379;DHT22;54262;44.642;-0.974;2024-01-15T09:13:07;10.40;99.90
67379;DHT22;54262;44.642;-0.974;2024-01-15T09:15:33;10.50;99.90
67379;DHT22;54262;44.642;-0.974;2024-01-15T09:17:59;10.60;99.90
67379;DHT22;54262;44.642;-0.974;2024-01-15T09:20:24;10.70;99.90
67379;DHT22;54262;44.642;-0.974;2024-01-15T09:22:52;10.70;99.90
67379;DHT22;54262;44.642;-0.974;2024-01-15T09:25:18;10.80;99.90
67379;DHT22;54262;44.642;-0.974;2024-01-15T09:27:44;10.70;99.90
67379;DHT22;54262;44.642;-0.974;2024-01-15T09:30:10;10.80;99.90
67379;DHT22;54262;44.642;-0.974;2024-01-15T09:32:36;10.80;99.90
67379;DHT22;54262;44.642;-0.974;2024-01-15T09:35:02;11.10;99.90
67379;DHT22;54262;44.642;-0.974;2024-01-15T09:37:27;10.90;99.90
67379;DHT22;54262;44.642;-0.974;2024-01-15T09:39:53;11.00;99.90
67379;DHT22;54262;44.642;-0.974;2024-01-15T09:42:21;11.10;99.90
67379;DHT22;54262;44.642;-0.974;2024-01-15T09:44:50;11.10;99.90
67379;DHT22;54262;44.642;-0.974;2024-01-15T09:47:16;11.20;99.90
67379;DHT22;54262;44.642;-0.974;2024-01-15T09:49:42;11.30;99.90
67379;DHT22;54262;44.642;-0.974;2024-01-15T09:52:08;11.30;99.90
67379;DHT22;54262;44.642;-0.974;2024-01-15T09:54:43;11.30;99.90
67379;DHT22;54262;44.642;-0.974;2024-01-15T09:57:09;11.30;99.90
67379;DHT22;54262;44.642;-0.974;2024-01-15T09:59:34;11.20;99.90
67379;DHT22;54262;44.642;-0.974;2024-01-15T10:02:00;11.50;99.90
67379;DHT22;54262;44.642;-0.974;2024-01-15T10:04:27;11.70;99.90
67379;DHT22;54262;44.642;-0.974;2024-01-15T10:06:52;11.70;99.90
67379;DHT22;54262;44.642;-0.974;2024-01-15T10:09:19;11.70;99.90
67379;DHT22;54262;44.642;-0.974;2024-01-15T10:11:44;11.90;99.90
67379;DHT22;54262;44.642;-0.974;2024-01-15T10:14:11;11.90;99.90
67379;DHT22;54262;44.642;-0.974;2024-01-15T10:16:40;11.80;99.90
67379;DHT22;54262;44.642;-0.974;2024-01-15T10:19:05;11.80;99.90
67379;DHT22;54262;44.642;-0.974;2024-01-15T10:21:34;12.00;99.90
67379;DHT22;54262;44.642;-0.974;2024-01-15T10:24:00;12.10;99.90
67379;DHT22;54262;44.642;-0.974;2024-01-15T10:26:26;13.60;99.90
67379;DHT22;54262;44.642;-0.974;2024-01-15T10:28:52;14.20;99.90
67379;DHT22;54262;44.642;-0.974;2024-01-15T10:31:20;14.60;99.90
67379;DHT22;54262;44.642;-0.974;2024-01-15T10:33:50;14.80;99.90
67379;DHT22;54262;44.642;-0.974;2024-01-15T10:36:16;14.90;99.90
67379;DHT22;54262;44.642;-0.974;2024-01-15T10:38:46;15.00;99.90
67379;DHT22;54262;44.642;-0.974;2024-01-15T10:41:11;15.00;99.90
67379;DHT22;54262;44.642;-0.974;2024-01-15T10:43:37;15.00;99.90
67379;DHT22;54262;44.642;-0.974;2024-01-15T10:46:05;15.10;99.90
67379;DHT22;54262;44.642;-0.974;2024-01-15T10:48:34;15.30;99.90
67379;DHT22;54262;44.642;-0.974;2024-01-15T10:51:01;15.40;99.90
67379;DHT22;54262;44.642;-0.974;2024-01-15T10:53:28;15.30;99.90
67379;DHT22;54262;44.642;-0.974;2024-01-15T10:55:58;15.40;99.90
67379;DHT22;54262;44.642;-0.974;2024-01-15T10:58:24;15.50;99.90
67379;DHT22;54262;44.642;-0.974;2024-01-15T11:00:50;15.50;99.90
67379;DHT22;54262;44.642;-0.974;2024-01-15T11:03:16;15.50;99.90
67379;DHT22;54262;44.642;-0.974;2024-01-15T11:05:46;15.60;99.90
67379;DHT22;54262;44.642;-0.974;2024-01-15T11:08:12;15.60;99.90
67379;DHT22;54262;44.642;-0.974;2024-01-15T11:10:42;15.70;99.90
67379;DHT22;54262;44.642;-0.974;2024-01-15T11:13:40;15.60;99.90
67379;DHT22;54262;44.642;-0.974;2024-01-15T11:16:01;15.60;99.90
67379;DHT22;54262;44.642;-0.974;2024-01-15T11:18:28;15.70;99.90
67379;DHT22;54262;44.642;-0.974;2024-01-15T11:23:42;15.80;99.90
67379;DHT22;54262;44.642;-0.974;2024-01-15T11:28:56;15.90;99.90
67379;DHT22;54262;44.642;-0.974;2024-01-15T11:34:08;16.00;99.90
67379;DHT22;54262;44.642;-0.974;2024-01-15T11:42:00;16.00;99.90
67379;DHT22;54262;44.642;-0.974;2024-01-15T11:44:26;16.10;99.90
67379;DHT22;54262;44.642;-0.974;2024-01-15T11:47:01;16.00;99.90
67379;DHT22;54262;44.642;-0.974;2024-01-15T11:52:12;16.10;99.90
67379;DHT22;54262;44.642;-0.974;2024-01-15T11:54:40;16.00;99.90
67379;DHT22;54262;44.642;-0.974;2024-01-15T11:57:10;16.00;99.90
67379;DHT22;54262;44.642;-0.974;2024-01-15T11:59:39;15.90;99.90
67379;DHT22;54262;44.642;-0.974;2024-01-15T12:02:04;15.90;99.90
67379;DHT22;54262;44.642;-0.974;2024-01-15T12:04:30;15.90;99.90
67379;DHT22;54262;44.642;-0.974;2024-01-15T12:06:55;15.90;99.90
67379;DHT22;54262;44.642;-0.974;2024-01-15T12:09:21;15.80;99.90
67379;DHT22;54262;44.642;-0.974;2024-01-15T12:11:51;15.80;99.90
67379;DHT22;54262;44.642;-0.974;2024-01-15T12:14:20;15.80;99.90
67379;DHT22;54262;44.642;-0.974;2024-01-15T12:16:46;15.80;99.90
67379;DHT22;54262;44.642;-0.974;2024-01-15T12:19:12;15.80;99.90
67379;DHT22;54262;44.642;-0.974;2024-01-15T12:21:39;15.80;99.90
67379;DHT22;54262;44.642;-0.974;2024-01-15T12:24:06;15.80;99.90
67379;DHT22;54262;44.642;-0.974;2024-01-15T12:26:32;15.90;99.90
67379;DHT22;54262;44.642;-0.974;2024-01-15T12:28:58;15.80;99.90
67379;DHT22;54262;44.642;-0.974;2024-01-15T12:31:26;15.90;99.90
67379;DHT22;54262;44.642;-0.974;2024-01-15T12:33:51;15.90;99.90
67379;DHT22;54262;44.642;-0.974;2024-01-15T12:36:20;16.00;99.90
67379;DHT22;54262;44.642;-0.974;2024-01-15T12:38:46;16.00;99.90
67379;DHT22;54262;44.642;-0.974;2024-01-15T12:41:11;16.00;99.90
67379;DHT22;54262;44.642;-0.974;2024-01-15T12:43:37;16.10;99.90
67379;DHT22;54262;44.642;-0.974;2024-01-15T12:46:02;16.20;99.90
67379;DHT22;54262;44.642;-0.974;2024-01-15T12:48:30;16.20;99.90
67379;DHT22;54262;44.642;-0.974;2024-01-15T12:50:56;16.20;99.90
67379;DHT22;54262;44.642;-0.974;2024-01-15T12:53:22;16.20;99.90
67379;DHT22;54262;44.642;-0.974;2024-01-15T12:55:47;16.30;99.90
67379;DHT22;54262;44.642;-0.974;2024-01-15T12:58:15;16.20;99.90
67379;DHT22;54262;44.642;-0.974;2024-01-15T13:00:40;16.30;99.90
67379;DHT22;54262;44.642;-0.974;2024-01-15T13:03:06;16.30;99.90
67379;DHT22;54262;44.642;-0.974;2024-01-15T13:05:32;16.40;99.90
67379;DHT22;54262;44.642;-0.974;2024-01-15T13:07:59;16.30;99.90
67379;DHT22;54262;44.642;-0.974;2024-01-15T13:10:24;16.30;99.90
67379;DHT22;54262;44.642;-0.974;2024-01-15T13:12:50;16.40;99.90
67379;DHT22;54262;44.642;-0.974;2024-01-15T13:15:16;16.40;99.90
67379;DHT22;54262;44.642;-0.974;2024-01-15T13:17:42;16.40;99.90
67379;DHT22;54262;44.642;-0.974;2024-01-15T13:20:08;16.30;99.90
67379;DHT22;54262;44.642;-0.974;2024-01-15T13:22:34;16.40;99.90
67379;DHT22;54262;44.642;-0.974;2024-01-15T13:24:59;16.50;99.90
67379;DHT22;54262;44.642;-0.974;2024-01-15T13:27:25;16.50;99.90
67379;DHT22;54262;44.642;-0.974;2024-01-15T13:29:51;16.50;99.90
67379;DHT22;54262;44.642;-0.974;2024-01-15T13:32:17;16.60;99.90
67379;DHT22;54262;44.642;-0.974;2024-01-15T13:34:47;16.70;99.90
67379;DHT22;54262;44.642;-0.974;2024-01-15T13:37:13;16.70;99.90
67379;DHT22;54262;44.642;-0.974;2024-01-15T13:39:38;16.70;99.90
67379;DHT22;54262;44.642;-0.974;2024-01-15T13:42:04;16.70;99.90
67379;DHT22;54262;44.642;-0.974;2024-01-15T13:44:29;16.70;99.90
67379;DHT22;54262;44.642;-0.974;2024-01-15T13:46:55;16.70;99.90
67379;DHT22;54262;44.642;-0.974;2024-01-15T13:49:23;16.70;99.90
67379;DHT22;54262;44.642;-0.974;2024-01-15T13:51:49;16.70;99.90
67379;DHT22;54262;44.642;-0.974;2024-01-15T13:54:15;16.70;99.90
67379;DHT22;54262;44.642;-0.974;2024-01-15T13:56:40;16.70;99.90
67379;DHT22;54262;44.642;-0.974;2024-01-15T13:59:08;16.60;99.90
67379;DHT22;54262;44.642;-0.974;2024-01-15T14:01:34;16.60;99.90
67379;DHT22;54262;44.642;-0.974;2024-01-15T14:03:59;16.60;99.90
67379;DHT22;54262;44.642;-0.974;2024-01-15T14:06:25;16.60;99.90
67379;DHT22;54262;44.642;-0.974;2024-01-15T14:08:51;16.60;99.90
67379;DHT22;54262;44.642;-0.974;2024-01-15T14:11:17;16.60;99.90
67379;DHT22;54262;44.642;-0.974;2024-01-15T14:13:43;16.80;99.90
67379;DHT22;54262;44.642;-0.974;2024-01-15T14:16:08;16.90;99.90
67379;DHT22;54262;44.642;-0.974;2024-01-15T14:18:35;16.90;99.90
67379;DHT22;54262;44.642;-0.974;2024-01-15T14:21:00;16.90;99.90
67379;DHT22;54262;44.642;-0.974;2024-01-15T14:23:26;16.80;99.90
67379;DHT22;54262;44.642;-0.974;2024-01-15T14:25:51;16.80;99.90
67379;DHT22;54262;44.642;-0.974;2024-01-15T14:28:20;16.90;99.90
67379;DHT22;54262;44.642;-0.974;2024-01-15T14:30:47;17.10;99.90
67379;DHT22;54262;44.642;-0.974;2024-01-15T14:33:13;17.20;99.90
67379;DHT22;54262;44.642;-0.974;2024-01-15T14:35:39;17.20;99.90
67379;DHT22;54262;44.642;-0.974;2024-01-15T14:38:04;17.30;99.90
67379;DHT22;54262;44.642;-0.974;2024-01-15T14:40:30;17.30;99.90
67379;DHT22;54262;44.642;-0.974;2024-01-15T14:42:55;17.30;99.90
67379;DHT22;54262;44.642;-0.974;2024-01-15T14:45:21;17.20;99.90
67379;DHT22;54262;44.642;-0.974;2024-01-15T14:47:46;17.20;99.90
67379;DHT22;54262;44.642;-0.974;2024-01-15T14:50:14;17.20;99.90
67379;DHT22;54262;44.642;-0.974;2024-01-15T14:52:39;17.20;99.90
67379;DHT22;54262;44.642;-0.974;2024-01-15T14:55:07;17.40;99.90
67379;DHT22;54262;44.642;-0.974;2024-01-15T14:57:34;17.40;99.90
67379;DHT22;54262;44.642;-0.974;2024-01-15T15:00:02;17.40;99.90
67379;DHT22;54262;44.642;-0.974;2024-01-15T15:02:28;17.50;99.90
67379;DHT22;54262;44.642;-0.974;2024-01-15T15:04:53;17.50;99.90
67379;DHT22;54262;44.642;-0.974;2024-01-15T15:07:21;17.50;99.90
67379;DHT22;54262;44.642;-0.974;2024-01-15T15:09:47;17.30;99.90
67379;DHT22;54262;44.642;-0.974;2024-01-15T15:12:16;17.20;99.90
67379;DHT22;54262;44.642;-0.974;2024-01-15T15:14:42;17.30;99.90
67379;DHT22;54262;44.642;-0.974;2024-01-15T15:17:08;17.40;99.90
67379;DHT22;54262;44.642;-0.974;2024-01-15T15:19:35;17.50;99.90
67379;DHT22;54262;44.642;-0.974;2024-01-15T15:22:01;17.50;99.90
67379;DHT22;54262;44.642;-0.974;2024-01-15T15:24:26;17.40;99.90
67379;DHT22;54262;44.642;-0.974;2024-01-15T15:26:52;17.40;99.90
67379;DHT22;54262;44.642;-0.974;2024-01-15T15:29:18;17.50;99.90
67379;DHT22;54262;44.642;-0.974;2024-01-15T15:31:44;17.60;99.90